Time;durP1;ratioP1;P1;durP2;ratioP2;P2;SDS_P1;SDS_P2;PMS_P1;PMS_P2;Temp;Humidity;BMP_temperature;BMP_pressure;BME280_temperature;BME280_humidity;BME280_pressure;Samples;Min_cycle;Max_cycle;Signal;HPM_P1;HPM_P2
2021/07/03 00:01:57;;;;;;;8.75;5.50;;;;;;;12.58;53.24;101702.41;5030479;28;20053;-70
2021/07/03 00:04:23;;;;;;;8.98;5.45;;;;;;;12.61;53.11;101704.91;5027328;28;20056;-70
2021/07/03 00:06:51;;;;;;;8.10;5.80;;;;;;;12.58;53.21;101705.03;5023820;28;20057;-70
2021/07/03 00:09:19;;;;;;;5.35;4.43;;;;;;;12.55;53.29;101702.50;5029167;28;20130;-72
2021/07/03 00:11:48;;;;;;;5.18;4.10;;;;;;;12.54;52.93;101708.66;5025548;28;20029;-73
2021/07/03 00:14:17;;;;;;;6.75;5.43;;;;;;;12.54;53.04;101711.28;5026946;28;20029;-73
2021/07/03 00:16:43;;;;;;;8.00;5.13;;;;;;;12.46;53.02;101698.44;5027114;28;20429;-72
2021/07/03 00:19:10;;;;;;;7.07;5.07;;;;;;;12.35;53.23;101705.81;5027246;28;20029;-74
2021/07/03 00:21:37;;;;;;;10.60;5.68;;;;;;;12.27;53.22;101706.09;5024316;28;20454;-72
2021/07/03 00:24:07;;;;;;;10.43;5.50;;;;;;;12.20;53.35;101707.22;5028402;28;20040;-72
2021/07/03 00:26:33;;;;;;;8.77;5.60;;;;;;;12.22;53.06;101713.25;5028212;28;20744;-72
2021/07/03 00:29:00;;;;;;;5.85;4.38;;;;;;;12.27;53.21;101708.72;5010007;28;20315;-73
2021/07/03 00:31:28;;;;;;;8.15;4.35;;;;;;;12.33;53.67;101712.03;5026095;28;20037;-71
2021/07/03 00:33:55;;;;;;;8.55;6.00;;;;;;;12.22;53.26;101713.25;5027324;28;20089;-71
2021/07/03 00:36:22;;;;;;;6.00;5.22;;;;;;;12.18;53.31;101714.25;5025286;28;20040;-71
2021/07/03 00:38:48;;;;;;;9.88;5.30;;;;;;;12.08;53.76;101710.22;5028652;28;20033;-71
2021/07/03 00:41:16;;;;;;;7.90;5.07;;;;;;;12.01;53.93;101714.81;5026996;28;20025;-71
2021/07/03 00:43:44;;;;;;;9.15;5.72;;;;;;;11.99;54.05;101710.53;5020783;28;20709;-72
2021/07/03 00:46:10;;;;;;;10.70;5.75;;;;;;;11.92;54.02;101714.25;5023385;28;20039;-69
2021/07/03 00:48:39;;;;;;;10.82;5.88;;;;;;;11.77;54.24;101713.81;5028815;28;20470;-71
2021/07/03 00:51:09;;;;;;;10.05;6.68;;;;;;;11.86;54.09;101705.66;5028033;28;20042;-71
2021/07/03 00:53:40;;;;;;;6.30;5.25;;;;;;;11.84;54.18;101707.50;5027480;28;20037;-71
2021/07/03 00:56:08;;;;;;;9.20;5.22;;;;;;;11.90;54.02;101711.69;5024180;28;20837;-70
2021/07/03 00:58:34;;;;;;;8.48;5.25;;;;;;;11.92;54.12;101709.03;5025781;28;20037;-70
2021/07/03 01:01:01;;;;;;;6.45;4.60;;;;;;;12.04;53.85;101712.09;5022756;28;20033;-70
2021/07/03 01:03:27;;;;;;;7.65;5.40;;;;;;;12.01;53.78;101712.19;5025185;28;20029;-71
2021/07/03 01:05:52;;;;;;;6.88;4.60;;;;;;;12.03;53.65;101713.00;5027270;28;20033;-71
2021/07/03 01:08:22;;;;;;;6.55;5.40;;;;;;;12.01;53.75;101713.97;5028246;28;20025;-71
2021/07/03 01:10:48;;;;;;;6.25;4.20;;;;;;;12.00;53.83;101713.13;5025718;28;20035;-70
2021/07/03 01:13:31;;;;;;;5.55;4.82;;;;;;;11.93;53.65;101716.81;5025997;28;20060;-72
2021/07/03 01:16:07;;;;;;;9.70;4.85;;;;;;;11.87;54.15;101723.13;5041013;28;20224;-72
2021/07/03 01:18:36;;;;;;;6.18;3.67;;;;;;;11.91;53.88;101717.78;5026995;28;20038;-68
2021/07/03 01:21:04;;;;;;;4.53;4.07;;;;;;;11.96;53.41;101708.03;5027610;28;20030;-71
2021/07/03 01:23:41;;;;;;;7.38;4.53;;;;;;;11.83;53.56;101708.41;5027347;28;20498;-71
2021/07/03 01:26:09;;;;;;;5.97;3.78;;;;;;;11.90;53.49;101706.44;5026767;28;20525;-72
2021/07/03 01:28:43;;;;;;;6.97;4.93;;;;;;;11.76;53.29;101696.38;5030203;28;20039;-72
2021/07/03 01:31:11;;;;;;;3.90;3.20;;;;;;;11.75;53.65;101699.88;5029638;28;20076;-72
2021/07/03 01:33:37;;;;;;;4.90;3.20;;;;;;;11.73;53.57;101706.97;5029763;28;20507;-71
2021/07/03 01:36:06;;;;;;;4.28;3.85;;;;;;;11.69;53.60;101692.25;5045369;28;20069;-72
2021/07/03 01:38:35;;;;;;;4.03;2.83;;;;;;;11.72;53.34;101696.53;5031048;28;20068;-71
2021/07/03 01:41:04;;;;;;;6.60;4.50;;;;;;;11.71;53.52;101695.69;5027165;28;20037;-71
2021/07/03 01:43:55;;;;;;;5.85;3.83;;;;;;;11.81;53.07;101698.88;5011340;28;20412;-71
2021/07/03 01:46:23;;;;;;;5.78;4.03;;;;;;;11.73;53.14;101686.03;5027679;28;20049;-71
2021/07/03 01:48:51;;;;;;;5.43;3.75;;;;;;;11.73;53.00;101690.38;5029371;28;20083;-71
2021/07/03 01:51:27;;;;;;;7.57;4.45;;;;;;;11.57;53.34;101687.38;5026545;28;20034;-72
2021/07/03 01:53:57;;;;;;;7.28;4.40;;;;;;;11.51;53.57;101698.03;5026540;28;20418;-70
2021/07/03 01:56:23;;;;;;;6.03;3.90;;;;;;;11.62;53.39;101696.81;5028211;28;20029;-71
2021/07/03 01:58:49;;;;;;;6.85;4.43;;;;;;;11.73;53.29;101688.63;5028158;28;20075;-70
2021/07/03 02:01:29;;;;;;;8.48;4.85;;;;;;;11.81;53.32;101686.63;5028207;28;21591;-72
2021/07/03 02:03:57;;;;;;;4.63;3.78;;;;;;;11.83;53.51;101682.22;5027158;28;20367;-71
2021/07/03 02:06:42;;;;;;;4.85;3.38;;;;;;;11.78;53.21;101692.00;5019423;28;20095;-71
2021/07/03 02:09:13;;;;;;;6.00;5.20;;;;;;;11.72;52.99;101684.28;5030323;28;20033;-71
2021/07/03 02:11:39;;;;;;;5.07;4.10;;;;;;;11.68;53.31;101685.28;5027238;28;20056;-71
2021/07/03 02:14:14;;;;;;;5.13;4.25;;;;;;;11.58;52.96;101684.72;5025122;28;20505;-70
2021/07/03 02:16:54;;;;;;;8.32;3.80;;;;;;;11.48;53.34;101687.69;5028977;28;20116;-70
2021/07/03 02:19:24;;;;;;;6.07;4.03;;;;;;;11.38;53.49;101681.88;5029968;28;20045;-70
2021/07/03 02:21:52;;;;;;;5.72;4.18;;;;;;;11.31;53.82;101682.94;5028249;28;20029;-72
2021/07/03 02:24:29;;;;;;;7.15;3.95;;;;;;;11.32;53.53;101687.28;5030920;28;20042;-73
2021/07/03 02:26:54;;;;;;;5.80;4.60;;;;;;;11.28;53.41;101691.75;5029780;28;20040;-72
2021/07/03 02:29:20;;;;;;;4.45;4.05;;;;;;;11.24;53.82;101696.22;5027704;28;20037;-72
2021/07/03 02:31:48;;;;;;;7.07;3.95;;;;;;;11.21;53.91;101687.59;5042800;28;20045;-70
2021/07/03 02:34:17;;;;;;;6.75;4.55;;;;;;;11.19;53.76;101702.50;5033084;28;20029;-70
2021/07/03 02:36:46;;;;;;;7.80;3.85;;;;;;;11.24;53.80;101695.34;5043221;28;20386;-70
2021/07/03 02:39:16;;;;;;;6.93;3.97;;;;;;;11.29;53.71;101685.63;5026939;28;20456;-69
2021/07/03 02:41:47;;;;;;;6.25;3.53;;;;;;;11.35;53.80;101693.31;5029303;28;20474;-70
2021/07/03 02:44:14;;;;;;;4.82;4.38;;;;;;;11.39;53.50;101692.28;5043277;28;20042;-72
2021/07/03 02:46:44;;;;;;;7.22;3.55;;;;;;;11.40;53.51;101691.41;5045237;28;20067;-70
2021/07/03 02:49:11;;;;;;;9.13;4.40;;;;;;;11.36;53.56;101689.75;5013207;28;20397;-73
2021/07/03 02:51:38;;;;;;;5.63;4.32;;;;;;;11.37;53.63;101694.09;5025680;28;20139;-70
2021/07/03 02:54:04;;;;;;;5.60;4.43;;;;;;;11.38;53.40;101698.44;5031374;28;20037;-70
2021/07/03 02:56:34;;;;;;;7.47;4.55;;;;;;;11.32;53.55;101700.38;5026682;28;20030;-71
2021/07/03 02:59:03;;;;;;;7.53;5.05;;;;;;;11.20;53.63;101704.22;5009163;28;20033;-70
2021/07/03 03:01:28;;;;;;;8.90;5.10;;;;;;;11.16;53.60;101707.81;5022825;28;20064;-70
2021/07/03 03:03:56;;;;;;;10.05;4.35;;;;;;;11.25;53.73;101707.56;5024451;28;20494;-71
2021/07/03 03:06:23;;;;;;;7.10;4.45;;;;;;;11.31;53.73;101701.25;5023850;28;20033;-71
2021/07/03 03:08:57;;;;;;;;;;;;;;;11.39;53.42;101710.59;5031431;28;20037;-71
2021/07/03 03:11:24;;;;;;;7.43;5.03;;;;;;;11.31;53.98;101712.63;5028063;28;19943;-70
2021/07/03 03:13:52;;;;;;;9.70;5.28;;;;;;;11.37;53.91;101707.16;5027545;28;20023;-72
2021/07/03 03:16:29;;;;;;;8.00;5.07;;;;;;;11.32;53.91;101710.84;5024922;28;20029;-75
2021/07/03 03:18:57;;;;;;;6.93;5.07;;;;;;;11.28;53.84;101709.22;5010140;28;20168;-70
2021/07/03 03:21:26;;;;;;;12.40;4.20;;;;;;;11.31;53.90;101712.63;5025508;28;20108;-72
2021/07/03 03:23:52;;;;;;;9.60;4.93;;;;;;;11.22;53.82;101712.88;5033480;28;20034;-69
2021/07/03 03:26:21;;;;;;;9.27;5.18;;;;;;;11.21;53.77;101713.78;5032584;28;20084;-70
2021/07/03 03:28:47;;;;;;;7.32;5.28;;;;;;;11.20;53.72;101706.84;5008681;28;20398;-69
2021/07/03 03:31:22;;;;;;;5.75;4.13;;;;;;;11.19;53.70;101711.19;5010833;28;20025;-70
2021/07/03 03:33:54;;;;;;;7.00;4.45;;;;;;;11.28;53.83;101710.06;5043330;28;20121;-73
2021/07/03 03:36:21;;;;;;;10.80;5.57;;;;;;;11.26;53.95;101709.25;5028261;28;20057;-74
2021/07/03 03:38:50;;;;;;;10.15;5.80;;;;;;;11.19;53.91;101697.25;5029918;28;20061;-70
2021/07/03 03:41:20;;;;;;;8.88;5.78;;;;;;;11.19;53.99;101708.56;5009544;28;20028;-70
2021/07/03 03:43:51;;;;;;;6.43;4.13;;;;;;;11.29;53.82;101709.19;5024732;28;20037;-71
2021/07/03 03:46:19;;;;;;;12.45;5.68;;;;;;;11.46;53.55;101708.66;5026495;28;20437;-70
2021/07/03 03:48:50;;;;;;;6.97;5.53;;;;;;;11.48;53.54;101713.84;5028261;28;20144;-69
2021/07/03 03:51:20;;;;;;;8.32;5.18;;;;;;;11.49;53.57;101715.59;5012174;28;20056;-71
2021/07/03 03:53:48;;;;;;;9.27;4.88;;;;;;;11.62;53.63;101715.16;5025295;28;20037;-70
2021/07/03 03:56:16;;;;;;;10.45;4.68;;;;;;;11.62;53.21;101709.03;5025706;28;20214;-70
2021/07/03 03:58:44;;;;;;;5.93;5.03;;;;;;;11.55;53.47;101710.13;5028187;28;20033;-70
2021/07/03 04:01:11;;;;;;;7.32;5.28;;;;;;;11.55;53.65;101718.84;5025457;28;20601;-70
2021/07/03 04:03:38;;;;;;;5.28;4.22;;;;;;;11.71;53.65;101714.00;5022232;28;20044;-70
2021/07/03 04:06:06;;;;;;;7.55;5.38;;;;;;;11.83;53.56;101715.41;5029060;28;20067;-71
2021/07/03 04:08:34;;;;;;;13.02;5.72;;;;;;;12.00;53.31;101720.09;5009315;28;20041;-70
2021/07/03 04:11:01;;;;;;;6.00;4.95;;;;;;;12.01;53.27;101716.56;5006832;28;20072;-70
2021/07/03 04:13:34;;;;;;;7.85;5.72;;;;;;;12.03;53.03;101722.63;5027098;28;20072;-70
2021/07/03 04:16:02;;;;;;;9.13;5.50;;;;;;;12.14;53.02;101719.66;5025874;28;20092;-70
2021/07/03 04:18:27;;;;;;;7.55;5.68;;;;;;;12.29;53.19;101721.78;5023272;28;20460;-71
2021/07/03 04:20:55;;;;;;;7.85;5.90;;;;;;;12.37;53.00;101726.75;5027214;28;20106;-69
2021/07/03 04:23:29;;;;;;;10.02;5.70;;;;;;;12.44;52.88;101720.38;5024677;28;20401;-70
2021/07/03 04:25:59;;;;;;;10.38;6.63;;;;;;;12.36;53.09;101725.03;5026770;28;20095;-71
2021/07/03 04:28:31;;;;;;;12.57;5.53;;;;;;;12.61;53.33;101717.19;5010197;28;20056;-73
2021/07/03 04:30:56;;;;;;;7.97;5.80;;;;;;;12.77;53.09;101714.91;5044872;28;20120;-71
2021/07/03 04:33:24;;;;;;;10.20;6.25;;;;;;;12.93;52.93;101710.78;5024306;28;20131;-73
2021/07/03 04:35:52;;;;;;;13.75;6.57;;;;;;;12.92;52.35;101714.34;5028697;28;20048;-73
2021/07/03 04:38:17;;;;;;;5.90;4.25;;;;;;;12.98;52.76;101708.88;5028261;28;20041;-71
2021/07/03 04:40:43;;;;;;;4.40;3.35;;;;;;;13.22;52.85;101708.84;5026170;28;20116;-70
2021/07/03 04:43:15;;;;;;;10.30;6.03;;;;;;;13.35;52.27;101702.22;5023881;28;20030;-69
2021/07/03 04:45:41;;;;;;;11.38;6.68;;;;;;;13.37;52.30;101705.66;5024652;28;20660;-69
2021/07/03 04:48:08;;;;;;;11.90;6.63;;;;;;;13.41;51.94;101701.16;5027320;28;20033;-74
2021/07/03 04:50:39;;;;;;;9.00;5.20;;;;;;;13.42;52.19;101701.06;5026675;28;20037;-71
2021/07/03 04:53:05;;;;;;;10.00;7.18;;;;;;;13.56;51.99;101694.41;5026819;28;20046;-73
2021/07/03 04:55:35;;;;;;;8.05;6.10;;;;;;;13.76;52.05;101702.38;5028715;28;20044;-73
2021/07/03 04:58:00;;;;;;;6.88;6.10;;;;;;;14.07;51.70;101695.88;5025470;28;20049;-70
2021/07/03 05:00:26;;;;;;;6.60;4.82;;;;;;;14.31;50.77;101694.84;5031618;28;21002;-70
2021/07/03 05:02:51;;;;;;;13.20;6.72;;;;;;;14.66;50.03;101695.13;5027913;28;20424;-70
2021/07/03 05:05:19;;;;;;;6.90;4.82;;;;;;;15.00;50.39;101698.88;5025745;28;20037;-69
2021/07/03 05:07:47;;;;;;;12.98;7.25;;;;;;;15.05;49.11;101690.75;5024873;28;20497;-70
2021/07/03 05:10:15;;;;;;;9.70;5.60;;;;;;;15.11;49.98;101686.06;5024392;28;20163;-69
2021/07/03 05:12:41;;;;;;;11.32;6.90;;;;;;;15.11;50.30;101693.97;5028394;28;20506;-70
2021/07/03 05:15:07;;;;;;;8.40;6.22;;;;;;;15.08;50.13;101686.22;5026004;28;20425;-71
2021/07/03 05:17:32;;;;;;;9.05;6.00;;;;;;;15.16;50.41;101693.75;5028007;28;20029;-70
2021/07/03 05:20:00;;;;;;;9.52;7.03;;;;;;;15.38;49.91;101693.63;5027175;28;20508;-70
2021/07/03 05:22:28;;;;;;;9.48;5.93;;;;;;;15.45;50.24;101689.75;5012659;28;20038;-68
2021/07/03 05:25:01;;;;;;;12.57;7.65;;;;;;;15.57;49.77;101691.81;5027516;28;20029;-71
2021/07/03 05:27:29;;;;;;;14.45;8.38;;;;;;;15.52;49.57;101688.53;5026091;28;20308;-70
2021/07/03 05:29:54;;;;;;;8.88;6.90;;;;;;;15.65;49.98;101690.59;5025998;28;20104;-71
2021/07/03 05:32:20;;;;;;;13.48;7.63;;;;;;;15.86;49.55;101693.94;5025573;28;20136;-71
2021/07/03 05:34:48;;;;;;;6.88;4.90;;;;;;;16.07;49.67;101694.72;5025510;28;20459;-69
2021/07/03 05:37:15;;;;;;;6.78;5.03;;;;;;;16.28;49.37;101701.50;4997689;28;20033;-71
2021/07/03 05:39:43;;;;;;;15.45;6.90;;;;;;;16.34;48.55;101700.38;5028972;28;20041;-70
2021/07/03 05:42:11;;;;;;;10.05;6.45;;;;;;;16.46;48.81;101694.44;5023599;28;20028;-71
2021/07/03 05:44:39;;;;;;;12.73;6.63;;;;;;;16.57;48.41;101686.81;5027153;28;20269;-69
2021/07/03 05:47:07;;;;;;;12.65;7.78;;;;;;;16.65;48.14;101689.06;5027739;28;20037;-69
2021/07/03 05:49:34;;;;;;;10.45;7.30;;;;;;;16.83;47.52;101696.03;5011089;22;20094;-69
2021/07/03 05:51:59;;;;;;;12.95;8.25;;;;;;;17.13;47.74;101691.81;5034132;28;20057;-69
2021/07/03 05:54:25;;;;;;;10.15;6.40;;;;;;;17.43;46.57;101686.63;5040353;28;20028;-69
2021/07/03 05:56:50;;;;;;;9.30;6.50;;;;;;;18.00;45.01;101699.22;5044949;28;20029;-69
2021/07/03 05:59:16;;;;;;;8.35;5.85;;;;;;;18.06;43.75;101691.78;5045864;28;20072;-69
2021/07/03 06:01:42;;;;;;;9.48;5.97;;;;;;;17.99;44.51;101693.09;5044301;28;20124;-69
2021/07/03 06:04:07;;;;;;;10.15;6.35;;;;;;;17.89;44.50;101689.28;5042617;28;20536;-69
2021/07/03 06:06:33;;;;;;;11.70;6.35;;;;;;;17.89;45.17;101699.00;5042622;28;20052;-69
2021/07/03 06:08:59;;;;;;;7.93;5.05;;;;;;;17.98;45.09;101693.19;5037105;28;20045;-69
2021/07/03 06:11:24;;;;;;;7.65;5.57;;;;;;;18.04;44.84;101693.69;5042140;28;20025;-69
2021/07/03 06:13:50;;;;;;;9.48;5.97;;;;;;;18.39;44.48;101682.81;5041335;28;20116;-69
2021/07/03 06:16:15;;;;;;;8.23;5.30;;;;;;;21.43;40.11;101682.94;5043198;28;20029;-68
2021/07/03 06:18:41;;;;;;;10.10;5.53;;;;;;;24.38;32.25;101677.28;5043001;28;20037;-70
2021/07/03 06:21:06;;;;;;;6.43;4.20;;;;;;;24.02;32.80;101684.81;5044087;28;20036;-70
2021/07/03 06:23:32;;;;;;;7.35;3.92;;;;;;;26.17;28.90;101687.03;5043932;28;20482;-69
2021/07/03 06:26:03;;;;;;;6.78;3.20;;;;;;;27.66;27.15;101690.53;5046013;28;20747;-69
2021/07/03 06:28:29;;;;;;;2.57;1.83;;;;;;;28.73;23.93;101681.34;5044060;28;20094;-69
2021/07/03 06:30:55;;;;;;;4.40;2.25;;;;;;;29.77;22.73;101686.25;5021758;28;20384;-69
2021/07/03 06:33:20;;;;;;;2.80;1.95;;;;;;;29.77;21.78;101682.69;5043111;28;20075;-69
2021/07/03 06:35:46;;;;;;;3.85;2.00;;;;;;;30.46;21.52;101687.63;5036978;28;20112;-70
2021/07/03 06:38:11;;;;;;;4.28;1.70;;;;;;;30.47;21.16;101686.63;5044622;28;20487;-69
2021/07/03 06:40:37;;;;;;;3.90;1.40;;;;;;;30.76;19.56;101694.97;5042387;28;20562;-69
2021/07/03 06:43:02;;;;;;;1.85;1.70;;;;;;;30.73;20.47;101680.97;5042783;28;20118;-69
2021/07/03 06:45:28;;;;;;;3.25;0.82;;;;;;;29.66;20.25;101685.72;5042380;28;20179;-69
2021/07/03 06:47:54;;;;;;;3.85;0.93;;;;;;;30.14;20.89;101681.34;5048786;28;20044;-69
2021/07/03 06:50:20;;;;;;;3.65;0.73;;;;;;;29.96;20.11;101689.59;5024344;28;20025;-69
2021/07/03 06:52:45;;;;;;;1.65;1.00;;;;;;;30.90;19.00;101693.34;5057669;28;20044;-70
2021/07/03 06:55:11;;;;;;;2.17;0.98;;;;;;;30.67;19.76;101697.84;5043211;28;20029;-69
2021/07/03 06:57:36;;;;;;;3.55;0.88;;;;;;;31.46;19.21;101695.88;5041329;28;20489;-69
2021/07/03 07:00:05;;;;;;;2.22;1.00;;;;;;;29.97;20.55;101692.13;5041777;28;20039;-69
2021/07/03 07:02:30;;;;;;;1.88;1.13;;;;;;;27.28;23.72;101696.03;5039940;28;20518;-69
2021/07/03 07:04:56;;;;;;;2.58;0.80;;;;;;;25.05;25.55;101700.81;5041854;28;20060;-69
2021/07/03 07:07:22;;;;;;;2.53;1.15;;;;;;;23.35;28.91;101697.44;5045228;28;20052;-69
2021/07/03 07:09:47;;;;;;;2.13;1.25;;;;;;;22.71;29.61;101702.59;5043596;28;20083;-69
2021/07/03 07:12:13;;;;;;;5.20;1.73;;;;;;;22.51;30.11;101707.63;5040414;28;20894;-68
2021/07/03 07:14:40;;;;;;;3.15;1.25;;;;;;;22.26;31.25;101697.19;5042735;28;20061;-68
2021/07/03 07:17:05;;;;;;;3.13;1.00;;;;;;;24.96;28.20;101690.91;5041008;28;20032;-68
2021/07/03 07:19:31;;;;;;;1.58;0.80;;;;;;;28.31;23.12;101685.63;5041648;28;20048;-69
2021/07/03 07:21:56;;;;;;;8.80;1.08;;;;;;;30.11;19.89;101689.75;5042425;28;20029;-69
2021/07/03 07:24:22;;;;;;;2.83;0.70;;;;;;;28.00;23.14;101689.78;5043139;28;20082;-69
2021/07/03 07:26:47;;;;;;;2.90;0.90;;;;;;;25.45;26.66;101691.84;5045322;28;20604;-70
2021/07/03 07:29:13;;;;;;;2.70;1.20;;;;;;;24.10;28.57;101687.69;5037750;28;20040;-69
2021/07/03 07:31:40;;;;;;;1.85;1.40;;;;;;;22.72;30.34;101690.97;5041064;28;20052;-69
2021/07/03 07:34:06;;;;;;;2.80;1.58;;;;;;;21.36;32.18;101697.66;5040621;28;20029;-69
2021/07/03 07:36:32;;;;;;;4.32;1.30;;;;;;;21.45;32.92;101701.44;5041882;28;20029;-70
2021/07/03 07:38:57;;;;;;;2.17;1.27;;;;;;;21.60;32.57;101691.50;5039703;28;20048;-69
2021/07/03 07:41:23;;;;;;;1.63;1.00;;;;;;;21.43;33.29;101698.06;5041717;28;20049;-69
2021/07/03 07:43:48;;;;;;;3.17;1.48;;;;;;;21.58;34.08;101698.75;5023047;28;20041;-69
2021/07/03 07:46:14;;;;;;;2.58;1.30;;;;;;;23.11;31.78;101694.91;5039609;28;20060;-69
2021/07/03 07:48:41;;;;;;;5.85;2.13;;;;;;;22.28;33.01;101689.94;5043479;28;20432;-70
2021/07/03 07:51:06;;;;;;;3.55;1.48;;;;;;;24.37;29.00;101687.13;5040791;28;20842;-70
2021/07/03 07:53:32;;;;;;;2.15;1.10;;;;;;;23.15;30.10;101691.03;5041280;28;20033;-69
2021/07/03 07:55:58;;;;;;;1.48;0.88;;;;;;;22.09;32.19;101694.03;5040379;28;20064;-68
2021/07/03 07:58:25;;;;;;;2.17;1.50;;;;;;;21.05;33.61;101693.72;5040456;28;20033;-69
2021/07/03 08:00:51;;;;;;;4.28;1.40;;;;;;;20.99;34.22;101689.69;5018018;28;20170;-71
2021/07/03 08:03:18;;;;;;;2.47;1.40;;;;;;;20.72;33.96;101697.78;5034928;28;20491;-68
2021/07/03 08:05:43;;;;;;;3.00;1.17;;;;;;;20.70;34.46;101694.38;5038655;28;20048;-69
2021/07/03 08:08:09;;;;;;;4.05;1.05;;;;;;;20.71;34.02;101693.44;5036880;28;20025;-68
2021/07/03 08:10:40;;;;;;;2.45;1.20;;;;;;;23.14;32.18;101696.47;5030054;28;20075;-69
2021/07/03 08:13:06;;;;;;;3.28;1.60;;;;;;;25.87;27.10;101691.59;5036150;28;20633;-68
2021/07/03 08:15:32;;;;;;;1.73;0.95;;;;;;;25.48;27.09;101691.56;5034029;28;20219;-70
2021/07/03 08:17:59;;;;;;;2.05;0.90;;;;;;;24.73;27.74;101695.63;5038734;28;20029;-71
2021/07/03 08:20:25;;;;;;;4.78;1.50;;;;;;;23.30;30.79;101694.31;5038845;28;20045;-68
2021/07/03 08:22:52;;;;;;;4.00;1.15;;;;;;;21.67;33.03;101698.94;5046878;23;20726;-68
2021/07/03 08:25:20;;;;;;;2.40;1.38;;;;;;;21.39;33.72;101691.25;5021944;28;20362;-68
2021/07/03 08:27:50;;;;;;;1.83;1.42;;;;;;;21.02;35.03;101689.47;5034407;28;20687;-68
2021/07/03 08:30:20;;;;;;;4.07;1.20;;;;;;;22.57;33.24;101698.31;5035405;28;20025;-68
2021/07/03 08:32:48;;;;;;;5.00;1.52;;;;;;;23.98;29.56;101684.22;5035209;28;20037;-68
2021/07/03 08:35:15;;;;;;;1.98;1.08;;;;;;;25.67;27.61;101673.88;5035923;28;20043;-68
2021/07/03 08:37:43;;;;;;;6.20;1.30;;;;;;;27.71;25.13;101666.75;5036378;28;20402;-68
2021/07/03 08:40:10;;;;;;;3.30;1.60;;;;;;;29.66;21.30;101670.44;5036611;28;20029;-68
2021/07/03 08:42:47;;;;;;;1.83;1.00;;;;;;;30.75;19.96;101668.97;5037083;28;20493;-68
2021/07/03 08:45:15;;;;;;;2.42;0.70;;;;;;;30.99;20.47;101670.69;5037863;28;20510;-68
2021/07/03 08:47:53;;;;;;;2.33;1.10;;;;;;;29.12;20.70;101660.09;5040017;28;20672;-68
2021/07/03 08:50:19;;;;;;;4.93;1.67;;;;;;;27.76;23.23;101659.03;5036525;28;20047;-69
2021/07/03 08:52:57;;;;;;;2.47;1.08;;;;;;;28.56;22.50;101661.56;5034573;28;20037;-69
2021/07/03 08:55:29;;;;;;;3.28;1.20;;;;;;;26.76;24.51;101663.59;5037802;28;20025;-68
2021/07/03 08:58:14;;;;;;;4.05;1.13;;;;;;;24.98;27.92;101654.19;5036932;28;20170;-67
2021/07/03 09:00:45;;;;;;;3.55;0.82;;;;;;;24.49;28.94;101661.19;5042461;28;20029;-67
2021/07/03 09:03:16;;;;;;;3.22;1.10;;;;;;;23.64;29.32;101659.50;5042450;28;20033;-68
2021/07/03 09:05:45;;;;;;;3.25;1.23;;;;;;;23.07;29.62;101665.97;5036804;28;20425;-69
2021/07/03 09:08:11;;;;;;;3.17;1.10;;;;;;;23.55;29.75;101652.28;5039067;28;20039;-68
2021/07/03 09:10:39;;;;;;;2.10;1.50;;;;;;;24.77;28.30;101654.28;5042037;28;20041;-68
2021/07/03 09:13:13;;;;;;;2.22;0.77;;;;;;;24.07;28.71;101649.72;5048137;28;20569;-68
2021/07/03 09:15:42;;;;;;;4.70;1.58;;;;;;;23.90;29.53;101654.69;5038188;28;20576;-68
2021/07/03 09:18:14;;;;;;;4.88;1.30;;;;;;;25.38;26.43;101645.25;5034613;28;20047;-67
2021/07/03 09:20:50;;;;;;;3.15;0.93;;;;;;;27.96;22.97;101648.09;5033605;28;20040;-68
2021/07/03 09:23:22;;;;;;;2.47;1.15;;;;;;;28.63;22.35;101646.47;5031428;28;20029;-68
2021/07/03 09:25:53;;;;;;;4.55;1.25;;;;;;;28.96;22.96;101636.66;5034053;28;20044;-68
2021/07/03 09:28:40;;;;;;;2.38;0.98;;;;;;;28.78;22.58;101640.50;5050659;28;20029;-68
2021/07/03 09:31:10;;;;;;;3.30;0.93;;;;;;;28.26;23.33;101642.28;5051574;28;20056;-68
2021/07/03 09:33:40;;;;;;;1.92;1.17;;;;;;;28.30;23.26;101640.09;5022374;28;20108;-68
2021/07/03 09:36:14;;;;;;;1.83;1.05;;;;;;;27.95;24.61;101641.06;5037887;28;20099;-69
2021/07/03 09:38:39;;;;;;;1.77;1.25;;;;;;;28.06;23.87;101636.25;5035973;28;20442;-69
2021/07/03 09:41:24;;;;;;;2.03;0.70;;;;;;;26.77;24.31;101640.28;5052447;28;20474;-69
2021/07/03 09:43:52;;;;;;;2.25;0.95;;;;;;;25.87;26.77;101638.03;5033704;28;20089;-70
2021/07/03 09:46:31;;;;;;;1.63;0.82;;;;;;;25.11;27.38;101634.34;5039006;28;20440;-69
2021/07/03 09:49:16;;;;;;;3.75;0.98;;;;;;;24.39;28.06;101630.88;5040530;28;20075;-70
2021/07/03 09:52:00;;;;;;;;;;;;;;;;;;;;;
2021/07/03 09:54:28;;;;;;;3.65;1.27;;;;;;;25.38;27.24;101618.47;5041792;28;20061;-69
2021/07/03 09:57:07;;;;;;;1.50;1.02;;;;;;;25.51;26.03;101620.00;5048450;28;20515;-69
2021/07/03 09:59:45;;;;;;;3.00;1.10;;;;;;;25.67;28.17;101623.00;5041819;28;20342;-70
2021/07/03 10:02:14;;;;;;;2.65;1.10;;;;;;;25.38;26.39;101625.66;5040008;28;20055;-69
2021/07/03 10:04:40;;;;;;;2.50;0.80;;;;;;;24.84;26.66;101617.16;5041849;28;20049;-69
2021/07/03 10:07:11;;;;;;;2.15;1.02;;;;;;;26.00;24.69;101624.34;5040894;28;20048;-69
2021/07/03 10:10:03;;;;;;;3.42;0.70;;;;;;;25.94;26.63;101619.56;5042092;28;21022;-69
2021/07/03 10:12:32;;;;;;;2.70;1.38;;;;;;;26.38;27.52;101617.19;5039431;28;20041;-69
2021/07/03 10:15:03;;;;;;;3.03;1.52;;;;;;;26.05;26.69;101613.19;5037353;28;20052;-69
2021/07/03 10:17:37;;;;;;;2.67;1.13;;;;;;;25.57;28.00;101608.78;5039556;28;20098;-69
2021/07/03 10:20:14;;;;;;;2.75;1.15;;;;;;;25.67;28.90;101620.31;5039753;28;20047;-69
2021/07/03 10:22:52;;;;;;;2.78;1.55;;;;;;;25.66;27.68;101623.97;5038586;28;20044;-69
2021/07/03 10:25:31;;;;;;;1.75;1.23;;;;;;;25.58;27.96;101608.63;5040452;28;20025;-69
2021/07/03 10:28:00;;;;;;;2.40;1.13;;;;;;;26.35;27.71;101609.41;5038230;28;20040;-69
2021/07/03 10:30:33;;;;;;;1.80;1.08;;;;;;;26.48;26.64;101604.56;5038402;28;20036;-69
2021/07/03 10:33:12;;;;;;;2.05;0.95;;;;;;;26.59;25.66;101610.75;5038762;28;20033;-69
2021/07/03 10:35:51;;;;;;;3.47;0.90;;;;;;;26.54;25.51;101600.47;5041126;28;20116;-69
2021/07/03 10:38:39;;;;;;;3.50;1.42;;;;;;;26.46;25.00;101600.34;5042955;28;20036;-69
2021/07/03 10:41:34;;;;;;;3.30;1.20;;;;;;;26.06;25.99;101598.81;5039698;28;20047;-69
2021/07/03 10:44:11;;;;;;;2.90;1.40;;;;;;;25.76;27.19;101600.72;5038941;28;20041;-70
2021/07/03 10:46:41;;;;;;;1.45;0.68;;;;;;;26.65;25.38;101608.31;5042859;28;20067;-69
2021/07/03 10:49:24;;;;;;;4.50;3.53;;;;;;;26.87;25.21;101603.50;5037688;28;20414;-69
2021/07/03 10:51:51;;;;;;;1.27;0.80;;;;;;;26.46;26.65;101603.03;5047722;28;20021;-69
2021/07/03 10:54:30;;;;;;;3.33;1.25;;;;;;;26.52;26.59;101605.13;5036904;28;20031;-69
2021/07/03 10:57:43;;;;;;;2.22;0.80;;;;;;;25.30;26.64;101604.94;5038468;28;20685;-69
2021/07/03 11:00:11;;;;;;;2.13;1.13;;;;;;;24.97;28.36;101606.19;5039740;28;20060;-69
2021/07/03 11:02:37;;;;;;;3.35;1.33;;;;;;;25.25;27.27;101604.53;5035871;28;20060;-70
2021/07/03 11:05:11;;;;;;;2.45;1.05;;;;;;;25.02;27.06;101604.81;5038418;28;20033;-69
2021/07/03 11:07:36;;;;;;;1.67;1.10;;;;;;;25.47;28.09;101598.06;5045757;28;20037;-70
2021/07/03 11:10:14;;;;;;;1.85;1.25;;;;;;;26.17;25.38;101600.47;5047780;28;20095;-69
2021/07/03 11:12:48;;;;;;;1.65;0.90;;;;;;;26.06;25.73;101594.31;5045237;28;20028;-70
2021/07/03 11:15:18;;;;;;;2.35;1.20;;;;;;;25.11;28.14;101602.25;5038938;28;20040;-70
2021/07/03 11:17:45;;;;;;;1.75;1.33;;;;;;;26.13;27.21;101597.25;5038641;28;20033;-69
2021/07/03 11:20:28;;;;;;;1.15;0.65;;;;;;;26.98;25.98;101605.97;5037003;28;20338;-70
2021/07/03 11:22:55;;;;;;;2.97;0.50;;;;;;;27.00;25.52;101597.78;5039278;28;20047;-69
2021/07/03 11:25:36;;;;;;;1.75;0.85;;;;;;;26.53;26.26;101592.56;5038858;28;20469;-69
2021/07/03 11:28:05;;;;;;;1.10;0.77;;;;;;;26.13;26.74;101594.56;5039408;28;20059;-70
2021/07/03 11:30:31;;;;;;;2.33;1.00;;;;;;;25.08;27.84;101595.38;5039474;28;20408;-69
2021/07/03 11:32:57;;;;;;;1.60;1.00;;;;;;;25.29;26.45;101592.56;5033875;28;20027;-70
2021/07/03 11:35:25;;;;;;;1.50;0.77;;;;;;;24.37;28.14;101590.97;5037235;28;20365;-70
2021/07/03 11:37:50;;;;;;;2.85;1.00;;;;;;;24.28;29.01;101590.91;5036033;28;20041;-69